sensor_id;sensor_type;location;lat;lon;timestamp;temperature;humidity
43581;DHT22;29175;51.030;4.606;2022-12-07T00:01:12;7.30;99.90
43581;DHT22;29175;51.030;4.606;2022-12-07T00:03:39;7.20;99.90
43581;DHT22;29175;51.030;4.606;2022-12-07T00:06:07;7.10;99.90
43581;DHT22;29175;51.030;4.606;2022-12-07T00:08:34;6.90;99.90
43581;DHT22;29175;51.030;4.606;2022-12-07T00:11:04;7.00;99.90
43581;DHT22;29175;51.030;4.606;2022-12-07T00:13:31;6.80;99.90
43581;DHT22;29175;51.030;4.606;2022-12-07T00:16:05;6.80;99.90
43581;DHT22;29175;51.030;4.606;2022-12-07T00:18:31;6.80;99.90
43581;DHT22;29175;51.030;4.606;2022-12-07T00:21:06;6.70;99.90
43581;DHT22;29175;51.030;4.606;2022-12-07T00:23:32;6.80;99.90
43581;DHT22;29175;51.030;4.606;2022-12-07T00:26:10;6.80;99.90
43581;DHT22;29175;51.030;4.606;2022-12-07T00:28:37;6.70;99.90
43581;DHT22;29175;51.030;4.606;2022-12-07T00:31:09;6.70;99.90
43581;DHT22;29175;51.030;4.606;2022-12-07T00:33:35;6.80;99.90
43581;DHT22;29175;51.030;4.606;2022-12-07T00:36:03;6.70;99.90
43581;DHT22;29175;51.030;4.606;2022-12-07T00:38:30;6.80;99.90
43581;DHT22;29175;51.030;4.606;2022-12-07T00:41:03;6.70;99.90
43581;DHT22;29175;51.030;4.606;2022-12-07T00:43:29;6.70;99.90
43581;DHT22;29175;51.030;4.606;2022-12-07T00:45:55;6.70;99.90
43581;DHT22;29175;51.030;4.606;2022-12-07T00:48:22;6.70;99.90
43581;DHT22;29175;51.030;4.606;2022-12-07T00:50:48;6.60;99.90
43581;DHT22;29175;51.030;4.606;2022-12-07T00:53:15;6.70;99.90
43581;DHT22;29175;51.030;4.606;2022-12-07T00:55:42;6.70;99.90
43581;DHT22;29175;51.030;4.606;2022-12-07T00:58:08;6.70;99.90
43581;DHT22;29175;51.030;4.606;2022-12-07T01:00:35;6.60;99.90
43581;DHT22;29175;51.030;4.606;2022-12-07T01:03:03;6.60;99.90
43581;DHT22;29175;51.030;4.606;2022-12-07T01:05:29;6.70;99.90
43581;DHT22;29175;51.030;4.606;2022-12-07T01:07:54;6.70;99.90
43581;DHT22;29175;51.030;4.606;2022-12-07T01:10:20;6.80;99.90
43581;DHT22;29175;51.030;4.606;2022-12-07T01:12:46;6.90;99.90
43581;DHT22;29175;51.030;4.606;2022-12-07T01:15:11;6.90;99.90
43581;DHT22;29175;51.030;4.606;2022-12-07T01:17:37;6.80;99.90
43581;DHT22;29175;51.030;4.606;2022-12-07T01:20:03;6.90;99.90
43581;DHT22;29175;51.030;4.606;2022-12-07T01:22:29;6.90;99.90
43581;DHT22;29175;51.030;4.606;2022-12-07T01:24:57;6.80;99.90
43581;DHT22;29175;51.030;4.606;2022-12-07T01:27:23;6.80;99.90
43581;DHT22;29175;51.030;4.606;2022-12-07T01:29:48;6.80;99.90
43581;DHT22;29175;51.030;4.606;2022-12-07T01:32:14;7.00;99.90
43581;DHT22;29175;51.030;4.606;2022-12-07T01:34:40;7.00;99.90
43581;DHT22;29175;51.030;4.606;2022-12-07T01:37:06;6.70;99.90
43581;DHT22;29175;51.030;4.606;2022-12-07T01:39:31;6.90;99.90
43581;DHT22;29175;51.030;4.606;2022-12-07T01:41:57;6.90;99.90
43581;DHT22;29175;51.030;4.606;2022-12-07T01:44:29;6.70;99.90
43581;DHT22;29175;51.030;4.606;2022-12-07T01:47:03;7.00;99.90
43581;DHT22;29175;51.030;4.606;2022-12-07T01:52:46;6.70;99.90
43581;DHT22;29175;51.030;4.606;2022-12-07T01:54:59;7.00;99.90
43581;DHT22;29175;51.030;4.606;2022-12-07T01:57:26;6.90;99.90
43581;DHT22;29175;51.030;4.606;2022-12-07T01:59:53;6.90;99.90
43581;DHT22;29175;51.030;4.606;2022-12-07T02:02:31;6.90;99.90
43581;DHT22;29175;51.030;4.606;2022-12-07T02:05:01;6.80;99.90
43581;DHT22;29175;51.030;4.606;2022-12-07T02:07:28;6.70;99.90
43581;DHT22;29175;51.030;4.606;2022-12-07T02:09:55;6.60;99.90
43581;DHT22;29175;51.030;4.606;2022-12-07T02:12:22;6.60;99.90
43581;DHT22;29175;51.030;4.606;2022-12-07T02:14:50;6.50;99.90
43581;DHT22;29175;51.030;4.606;2022-12-07T02:23:23;6.60;99.90
43581;DHT22;29175;51.030;4.606;2022-12-07T02:31:21;6.90;99.90
43581;DHT22;29175;51.030;4.606;2022-12-07T02:34:09;6.90;99.90
43581;DHT22;29175;51.030;4.606;2022-12-07T02:36:42;7.00;99.90
43581;DHT22;29175;51.030;4.606;2022-12-07T02:39:20;7.10;99.90
43581;DHT22;29175;51.030;4.606;2022-12-07T02:41:54;7.00;99.90
43581;DHT22;29175;51.030;4.606;2022-12-07T02:44:24;7.00;99.90
43581;DHT22;29175;51.030;4.606;2022-12-07T02:46:55;7.00;99.90
43581;DHT22;29175;51.030;4.606;2022-12-07T02:49:27;7.00;99.90
43581;DHT22;29175;51.030;4.606;2022-12-07T02:51:53;7.00;99.90
43581;DHT22;29175;51.030;4.606;2022-12-07T02:54:20;7.10;99.90
43581;DHT22;29175;51.030;4.606;2022-12-07T02:57:51;7.10;99.90
43581;DHT22;29175;51.030;4.606;2022-12-07T03:08:07;7.10;99.90
43581;DHT22;29175;51.030;4.606;2022-12-07T03:13:33;6.90;99.90
43581;DHT22;29175;51.030;4.606;2022-12-07T03:18:58;7.10;99.90
43581;DHT22;29175;51.030;4.606;2022-12-07T03:21:27;7.10;99.90
43581;DHT22;29175;51.030;4.606;2022-12-07T03:23:58;7.10;99.90
43581;DHT22;29175;51.030;4.606;2022-12-07T03:26:31;7.10;99.90
43581;DHT22;29175;51.030;4.606;2022-12-07T03:29:02;7.20;99.90
43581;DHT22;29175;51.030;4.606;2022-12-07T03:31:33;7.20;99.90
43581;DHT22;29175;51.030;4.606;2022-12-07T03:37:10;7.20;99.90
43581;DHT22;29175;51.030;4.606;2022-12-07T03:39:49;7.20;99.90
43581;DHT22;29175;51.030;4.606;2022-12-07T03:42:18;7.10;99.90
43581;DHT22;29175;51.030;4.606;2022-12-07T03:44:44;7.10;99.90
43581;DHT22;29175;51.030;4.606;2022-12-07T03:55:27;6.90;99.90
43581;DHT22;29175;51.030;4.606;2022-12-07T03:57:56;6.80;99.90
43581;DHT22;29175;51.030;4.606;2022-12-07T04:00:25;6.70;99.90
43581;DHT22;29175;51.030;4.606;2022-12-07T04:02:52;6.60;99.90
43581;DHT22;29175;51.030;4.606;2022-12-07T04:05:18;6.60;99.90
43581;DHT22;29175;51.030;4.606;2022-12-07T04:07:44;6.50;99.90
43581;DHT22;29175;51.030;4.606;2022-12-07T04:10:10;6.50;99.90
43581;DHT22;29175;51.030;4.606;2022-12-07T04:12:36;6.40;99.90
43581;DHT22;29175;51.030;4.606;2022-12-07T04:15:03;6.40;99.90
43581;DHT22;29175;51.030;4.606;2022-12-07T04:17:29;6.30;99.90
43581;DHT22;29175;51.030;4.606;2022-12-07T04:19:54;6.20;99.90
43581;DHT22;29175;51.030;4.606;2022-12-07T04:22:20;6.20;99.90
43581;DHT22;29175;51.030;4.606;2022-12-07T04:24:46;6.20;99.90
43581;DHT22;29175;51.030;4.606;2022-12-07T04:27:12;6.10;99.90
43581;DHT22;29175;51.030;4.606;2022-12-07T04:29:38;6.20;99.90
43581;DHT22;29175;51.030;4.606;2022-12-07T04:32:04;6.20;99.90
43581;DHT22;29175;51.030;4.606;2022-12-07T04:34:29;6.30;99.90
43581;DHT22;29175;51.030;4.606;2022-12-07T04:36:55;6.20;99.90
43581;DHT22;29175;51.030;4.606;2022-12-07T04:39:27;6.20;99.90
43581;DHT22;29175;51.030;4.606;2022-12-07T04:41:53;6.10;99.90
43581;DHT22;29175;51.030;4.606;2022-12-07T04:44:20;6.10;99.90
43581;DHT22;29175;51.030;4.606;2022-12-07T04:46:47;5.90;99.90
43581;DHT22;29175;51.030;4.606;2022-12-07T04:49:14;5.80;99.90
43581;DHT22;29175;51.030;4.606;2022-12-07T04:51:41;5.80;99.90
43581;DHT22;29175;51.030;4.606;2022-12-07T04:54:08;5.70;99.90
43581;DHT22;29175;51.030;4.606;2022-12-07T04:56:34;5.70;99.90
43581;DHT22;29175;51.030;4.606;2022-12-07T04:59:01;5.70;99.90
43581;DHT22;29175;51.030;4.606;2022-12-07T05:01:27;5.80;99.90
43581;DHT22;29175;51.030;4.606;2022-12-07T05:03:53;6.00;99.90
43581;DHT22;29175;51.030;4.606;2022-12-07T05:06:19;6.10;99.90
43581;DHT22;29175;51.030;4.606;2022-12-07T05:08:46;6.10;99.90
43581;DHT22;29175;51.030;4.606;2022-12-07T05:11:12;6.20;99.90
43581;DHT22;29175;51.030;4.606;2022-12-07T05:13:58;6.30;99.90
43581;DHT22;29175;51.030;4.606;2022-12-07T05:16:24;6.30;99.90
43581;DHT22;29175;51.030;4.606;2022-12-07T05:18:51;6.20;99.90
43581;DHT22;29175;51.030;4.606;2022-12-07T05:21:16;6.30;99.90
43581;DHT22;29175;51.030;4.606;2022-12-07T05:23:42;6.20;99.90
43581;DHT22;29175;51.030;4.606;2022-12-07T05:26:08;6.10;99.90
43581;DHT22;29175;51.030;4.606;2022-12-07T05:28:34;6.30;99.90
43581;DHT22;29175;51.030;4.606;2022-12-07T05:30:59;6.40;99.90
43581;DHT22;29175;51.030;4.606;2022-12-07T05:33:25;6.40;99.90
43581;DHT22;29175;51.030;4.606;2022-12-07T05:35:52;6.40;99.90
43581;DHT22;29175;51.030;4.606;2022-12-07T05:38:18;6.30;99.90
43581;DHT22;29175;51.030;4.606;2022-12-07T05:40:44;6.30;99.90
43581;DHT22;29175;51.030;4.606;2022-12-07T05:43:10;6.30;99.90
43581;DHT22;29175;51.030;4.606;2022-12-07T05:45:37;6.30;99.90
43581;DHT22;29175;51.030;4.606;2022-12-07T05:48:03;6.30;99.90
43581;DHT22;29175;51.030;4.606;2022-12-07T05:50:28;6.20;99.90
43581;DHT22;29175;51.030;4.606;2022-12-07T05:52:54;6.20;99.90
43581;DHT22;29175;51.030;4.606;2022-12-07T05:55:20;6.20;99.90
43581;DHT22;29175;51.030;4.606;2022-12-07T05:57:46;6.30;99.90
43581;DHT22;29175;51.030;4.606;2022-12-07T06:00:32;6.30;99.90
43581;DHT22;29175;51.030;4.606;2022-12-07T06:02:57;6.40;99.90
43581;DHT22;29175;51.030;4.606;2022-12-07T06:05:23;6.50;99.90
43581;DHT22;29175;51.030;4.606;2022-12-07T06:07:49;6.30;99.90
43581;DHT22;29175;51.030;4.606;2022-12-07T06:10:15;6.40;99.90
43581;DHT22;29175;51.030;4.606;2022-12-07T06:12:41;6.40;99.90
43581;DHT22;29175;51.030;4.606;2022-12-07T06:15:09;6.30;99.90
43581;DHT22;29175;51.030;4.606;2022-12-07T06:17:36;6.20;99.90
43581;DHT22;29175;51.030;4.606;2022-12-07T06:20:03;6.30;99.90
43581;DHT22;29175;51.030;4.606;2022-12-07T06:22:29;6.30;99.90
43581;DHT22;29175;51.030;4.606;2022-12-07T06:24:54;6.30;99.90
43581;DHT22;29175;51.030;4.606;2022-12-07T06:27:20;6.40;99.90
43581;DHT22;29175;51.030;4.606;2022-12-07T06:29:46;6.40;99.90
43581;DHT22;29175;51.030;4.606;2022-12-07T06:32:12;6.50;99.90
43581;DHT22;29175;51.030;4.606;2022-12-07T06:34:38;6.40;99.90
43581;DHT22;29175;51.030;4.606;2022-12-07T06:37:04;6.20;99.90
43581;DHT22;29175;51.030;4.606;2022-12-07T06:39:30;6.10;99.90
43581;DHT22;29175;51.030;4.606;2022-12-07T06:41:56;6.40;99.90
43581;DHT22;29175;51.030;4.606;2022-12-07T06:44:22;6.50;99.90
43581;DHT22;29175;51.030;4.606;2022-12-07T06:46:49;6.40;99.90
43581;DHT22;29175;51.030;4.606;2022-12-07T06:49:15;6.50;99.90
43581;DHT22;29175;51.030;4.606;2022-12-07T06:51:41;6.60;99.90
43581;DHT22;29175;51.030;4.606;2022-12-07T06:54:08;6.60;99.90
43581;DHT22;29175;51.030;4.606;2022-12-07T06:56:34;6.60;99.90
43581;DHT22;29175;51.030;4.606;2022-12-07T06:59:00;6.60;99.90
43581;DHT22;29175;51.030;4.606;2022-12-07T07:01:25;6.60;99.90
43581;DHT22;29175;51.030;4.606;2022-12-07T07:03:52;6.60;99.90
43581;DHT22;29175;51.030;4.606;2022-12-07T07:06:17;6.60;99.90
43581;DHT22;29175;51.030;4.606;2022-12-07T07:08:43;6.70;99.90
43581;DHT22;29175;51.030;4.606;2022-12-07T07:11:09;6.60;99.90
43581;DHT22;29175;51.030;4.606;2022-12-07T07:13:35;6.60;99.90
43581;DHT22;29175;51.030;4.606;2022-12-07T07:16:01;6.60;99.90
43581;DHT22;29175;51.030;4.606;2022-12-07T07:18:27;6.60;99.90
43581;DHT22;29175;51.030;4.606;2022-12-07T07:20:53;6.60;99.90
43581;DHT22;29175;51.030;4.606;2022-12-07T07:23:20;6.50;99.90
43581;DHT22;29175;51.030;4.606;2022-12-07T07:25:46;6.40;99.90
43581;DHT22;29175;51.030;4.606;2022-12-07T07:28:13;6.40;99.90
43581;DHT22;29175;51.030;4.606;2022-12-07T07:30:38;6.40;99.90
43581;DHT22;29175;51.030;4.606;2022-12-07T07:33:05;6.30;99.90
43581;DHT22;29175;51.030;4.606;2022-12-07T07:35:33;6.10;99.90
43581;DHT22;29175;51.030;4.606;2022-12-07T07:37:59;6.00;99.90
43581;DHT22;29175;51.030;4.606;2022-12-07T07:40:26;6.00;99.90
43581;DHT22;29175;51.030;4.606;2022-12-07T07:42:53;6.00;99.90
43581;DHT22;29175;51.030;4.606;2022-12-07T07:45:21;6.00;99.90
43581;DHT22;29175;51.030;4.606;2022-12-07T07:47:47;5.90;99.90
43581;DHT22;29175;51.030;4.606;2022-12-07T07:50:13;5.90;99.90
43581;DHT22;29175;51.030;4.606;2022-12-07T07:52:39;5.80;99.90
43581;DHT22;29175;51.030;4.606;2022-12-07T07:55:05;5.90;99.90
43581;DHT22;29175;51.030;4.606;2022-12-07T07:57:32;5.80;99.90
43581;DHT22;29175;51.030;4.606;2022-12-07T07:59:58;5.80;99.90
43581;DHT22;29175;51.030;4.606;2022-12-07T08:02:25;5.90;99.90
43581;DHT22;29175;51.030;4.606;2022-12-07T08:04:50;5.90;99.90
43581;DHT22;29175;51.030;4.606;2022-12-07T08:07:17;5.90;99.90
43581;DHT22;29175;51.030;4.606;2022-12-07T08:09:43;6.00;99.90
43581;DHT22;29175;51.030;4.606;2022-12-07T08:12:08;5.90;99.90
43581;DHT22;29175;51.030;4.606;2022-12-07T08:14:34;5.90;99.90
43581;DHT22;29175;51.030;4.606;2022-12-07T08:17:00;5.80;99.90
43581;DHT22;29175;51.030;4.606;2022-12-07T08:19:26;5.90;99.90
43581;DHT22;29175;51.030;4.606;2022-12-07T08:21:52;5.90;99.90
43581;DHT22;29175;51.030;4.606;2022-12-07T08:24:19;5.90;99.90
43581;DHT22;29175;51.030;4.606;2022-12-07T08:26:44;5.90;99.90
43581;DHT22;29175;51.030;4.606;2022-12-07T08:29:10;5.90;99.90
43581;DHT22;29175;51.030;4.606;2022-12-07T08:31:36;6.10;99.90
43581;DHT22;29175;51.030;4.606;2022-12-07T08:34:02;6.20;99.90
43581;DHT22;29175;51.030;4.606;2022-12-07T08:36:27;6.40;99.90
43581;DHT22;29175;51.030;4.606;2022-12-07T08:38:53;6.50;99.90
43581;DHT22;29175;51.030;4.606;2022-12-07T08:41:19;6.70;99.90
43581;DHT22;29175;51.030;4.606;2022-12-07T08:43:45;6.60;99.90
43581;DHT22;29175;51.030;4.606;2022-12-07T08:46:28;6.70;99.90
43581;DHT22;29175;51.030;4.606;2022-12-07T08:49:16;6.80;99.90
43581;DHT22;29175;51.030;4.606;2022-12-07T08:51:44;6.70;99.90
43581;DHT22;29175;51.030;4.606;2022-12-07T08:54:14;6.60;99.90
43581;DHT22;29175;51.030;4.606;2022-12-07T08:56:41;6.50;99.90
43581;DHT22;29175;51.030;4.606;2022-12-07T08:59:07;6.60;99.90
43581;DHT22;29175;51.030;4.606;2022-12-07T09:01:33;6.70;99.90
43581;DHT22;29175;51.030;4.606;2022-12-07T09:04:00;6.60;99.90
43581;DHT22;29175;51.030;4.606;2022-12-07T09:06:25;6.60;99.90
43581;DHT22;29175;51.030;4.606;2022-12-07T09:08:54;6.90;99.90
43581;DHT22;29175;51.030;4.606;2022-12-07T09:11:22;7.30;99.90
43581;DHT22;29175;51.030;4.606;2022-12-07T09:13:47;7.30;99.90
43581;DHT22;29175;51.030;4.606;2022-12-07T09:16:13;7.60;99.90
43581;DHT22;29175;51.030;4.606;2022-12-07T09:18:39;7.90;99.90
43581;DHT22;29175;51.030;4.606;2022-12-07T09:21:05;7.70;99.90
43581;DHT22;29175;51.030;4.606;2022-12-07T09:23:30;7.90;99.90
43581;DHT22;29175;51.030;4.606;2022-12-07T09:26:00;7.90;99.90
43581;DHT22;29175;51.030;4.606;2022-12-07T09:28:26;7.70;99.90
43581;DHT22;29175;51.030;4.606;2022-12-07T09:30:52;7.70;99.90
43581;DHT22;29175;51.030;4.606;2022-12-07T09:33:17;7.50;99.90
43581;DHT22;29175;51.030;4.606;2022-12-07T09:35:48;7.60;99.90
43581;DHT22;29175;51.030;4.606;2022-12-07T09:38:16;7.60;99.90
43581;DHT22;29175;51.030;4.606;2022-12-07T09:40:44;7.70;99.90
43581;DHT22;29175;51.030;4.606;2022-12-07T09:43:17;7.80;99.90
43581;DHT22;29175;51.030;4.606;2022-12-07T09:45:44;7.40;99.90
43581;DHT22;29175;51.030;4.606;2022-12-07T09:48:21;7.50;99.90
43581;DHT22;29175;51.030;4.606;2022-12-07T09:50:48;7.50;99.90
43581;DHT22;29175;51.030;4.606;2022-12-07T09:53:43;7.70;99.90
43581;DHT22;29175;51.030;4.606;2022-12-07T09:56:15;7.90;99.90
43581;DHT22;29175;51.030;4.606;2022-12-07T09:58:43;8.10;99.90
43581;DHT22;29175;51.030;4.606;2022-12-07T10:03:36;8.10;99.90
43581;DHT22;29175;51.030;4.606;2022-12-07T10:06:04;8.30;99.90
43581;DHT22;29175;51.030;4.606;2022-12-07T10:08:31;8.50;99.90
43581;DHT22;29175;51.030;4.606;2022-12-07T10:10:57;8.40;99.90
43581;DHT22;29175;51.030;4.606;2022-12-07T10:13:38;8.70;99.90
43581;DHT22;29175;51.030;4.606;2022-12-07T10:16:05;8.90;99.90
43581;DHT22;29175;51.030;4.606;2022-12-07T10:18:32;8.70;99.90
43581;DHT22;29175;51.030;4.606;2022-12-07T10:28:56;9.10;99.90
43581;DHT22;29175;51.030;4.606;2022-12-07T10:31:24;8.90;99.90
43581;DHT22;29175;51.030;4.606;2022-12-07T10:33:58;8.90;99.90
43581;DHT22;29175;51.030;4.606;2022-12-07T10:39:11;9.00;99.90
43581;DHT22;29175;51.030;4.606;2022-12-07T10:41:59;9.10;99.90
43581;DHT22;29175;51.030;4.606;2022-12-07T10:44:27;9.00;99.90
43581;DHT22;29175;51.030;4.606;2022-12-07T10:52:38;9.10;99.90
43581;DHT22;29175;51.030;4.606;2022-12-07T10:55:33;9.10;99.90
43581;DHT22;29175;51.030;4.606;2022-12-07T10:58:17;9.10;99.90
43581;DHT22;29175;51.030;4.606;2022-12-07T11:01:01;9.20;99.90
43581;DHT22;29175;51.030;4.606;2022-12-07T11:10:18;9.60;99.90
43581;DHT22;29175;51.030;4.606;2022-12-07T11:15:01;9.80;99.90
43581;DHT22;29175;51.030;4.606;2022-12-07T11:20:54;9.40;99.90
43581;DHT22;29175;51.030;4.606;2022-12-07T11:23:44;9.60;99.90
43581;DHT22;29175;51.030;4.606;2022-12-07T11:29:28;9.80;99.90
43581;DHT22;29175;51.030;4.606;2022-12-07T11:37:36;10.30;99.90
43581;DHT22;29175;51.030;4.606;2022-12-07T11:42:55;10.50;99.90
43581;DHT22;29175;51.030;4.606;2022-12-07T11:45:33;10.30;99.90
43581;DHT22;29175;51.030;4.606;2022-12-07T11:50:47;10.10;99.90
43581;DHT22;29175;51.030;4.606;2022-12-07T11:53:56;9.90;99.90
43581;DHT22;29175;51.030;4.606;2022-12-07T11:56:27;10.00;99.90
43581;DHT22;29175;51.030;4.606;2022-12-07T11:59:17;9.90;99.90
43581;DHT22;29175;51.030;4.606;2022-12-07T12:07:21;9.90;99.90
43581;DHT22;29175;51.030;4.606;2022-12-07T12:10:18;9.80;99.90
43581;DHT22;29175;51.030;4.606;2022-12-07T12:13:14;9.70;99.90
43581;DHT22;29175;51.030;4.606;2022-12-07T12:16:28;9.50;99.90
43581;DHT22;29175;51.030;4.606;2022-12-07T12:21:39;9.30;99.90
43581;DHT22;29175;51.030;4.606;2022-12-07T12:24:12;9.30;99.90
43581;DHT22;29175;51.030;4.606;2022-12-07T12:26:39;9.40;99.90
43581;DHT22;29175;51.030;4.606;2022-12-07T12:29:43;9.40;99.90
43581;DHT22;29175;51.030;4.606;2022-12-07T12:32:22;9.70;99.90
43581;DHT22;29175;51.030;4.606;2022-12-07T12:37:47;9.60;99.90
43581;DHT22;29175;51.030;4.606;2022-12-07T12:42:46;9.70;99.90
43581;DHT22;29175;51.030;4.606;2022-12-07T12:45:25;9.60;99.90
43581;DHT22;29175;51.030;4.606;2022-12-07T12:50:36;9.50;99.90
43581;DHT22;29175;51.030;4.606;2022-12-07T12:53:24;9.60;99.90
43581;DHT22;29175;51.030;4.606;2022-12-07T12:56:34;9.60;99.90
43581;DHT22;29175;51.030;4.606;2022-12-07T13:02:20;9.60;99.90
43581;DHT22;29175;51.030;4.606;2022-12-07T13:15:44;9.90;99.90
43581;DHT22;29175;51.030;4.606;2022-12-07T13:28:52;9.70;99.90
43581;DHT22;29175;51.030;4.606;2022-12-07T13:31:36;9.90;99.90
43581;DHT22;29175;51.030;4.606;2022-12-07T13:34:04;9.90;99.90
43581;DHT22;29175;51.030;4.606;2022-12-07T13:36:39;10.00;99.90
43581;DHT22;29175;51.030;4.606;2022-12-07T13:41:42;9.90;99.90
43581;DHT22;29175;51.030;4.606;2022-12-07T13:44:15;9.70;99.90
43581;DHT22;29175;51.030;4.606;2022-12-07T13:46:55;9.70;99.90
43581;DHT22;29175;51.030;4.606;2022-12-07T13:49:27;9.70;99.90
43581;DHT22;29175;51.030;4.606;2022-12-07T13:51:53;9.80;99.90
43581;DHT22;29175;51.030;4.606;2022-12-07T13:54:20;9.60;99.90
43581;DHT22;29175;51.030;4.606;2022-12-07T13:56:51;9.60;99.90
43581;DHT22;29175;51.030;4.606;2022-12-07T13:59:25;9.50;99.90
43581;DHT22;29175;51.030;4.606;2022-12-07T14:01:52;9.30;99.90
43581;DHT22;29175;51.030;4.606;2022-12-07T14:04:36;9.10;99.90
43581;DHT22;29175;51.030;4.606;2022-12-07T14:09:59;8.80;99.90
43581;DHT22;29175;51.030;4.606;2022-12-07T14:12:26;8.60;99.90
43581;DHT22;29175;51.030;4.606;2022-12-07T14:14:53;8.30;99.90
43581;DHT22;29175;51.030;4.606;2022-12-07T14:17:22;8.20;99.90
43581;DHT22;29175;51.030;4.606;2022-12-07T14:19:49;8.20;99.90
43581;DHT22;29175;51.030;4.606;2022-12-07T14:22:41;8.10;99.90
43581;DHT22;29175;51.030;4.606;2022-12-07T14:27:46;8.20;99.90
43581;DHT22;29175;51.030;4.606;2022-12-07T14:30:17;8.10;99.90
43581;DHT22;29175;51.030;4.606;2022-12-07T14:32:43;8.40;99.90
43581;DHT22;29175;51.030;4.606;2022-12-07T14:35:14;8.50;99.90
43581;DHT22;29175;51.030;4.606;2022-12-07T14:37:42;8.60;99.90
43581;DHT22;29175;51.030;4.606;2022-12-07T14:40:18;8.40;99.90
43581;DHT22;29175;51.030;4.606;2022-12-07T14:42:45;8.40;99.90
43581;DHT22;29175;51.030;4.606;2022-12-07T14:45:22;8.50;99.90
43581;DHT22;29175;51.030;4.606;2022-12-07T14:47:48;8.30;99.90
43581;DHT22;29175;51.030;4.606;2022-12-07T14:50:16;8.10;99.90
43581;DHT22;29175;51.030;4.606;2022-12-07T14:52:55;8.00;99.90
43581;DHT22;29175;51.030;4.606;2022-12-07T14:55:28;8.00;99.90
43581;DHT22;29175;51.030;4.606;2022-12-07T14:57:54;8.10;99.90
43581;DHT22;29175;51.030;4.606;2022-12-07T15:00:23;7.80;99.90
43581;DHT22;29175;51.030;4.606;2022-12-07T15:02:50;8.00;99.90
43581;DHT22;29175;51.030;4.606;2022-12-07T15:05:17;8.00;99.90
43581;DHT22;29175;51.030;4.606;2022-12-07T15:07:44;8.20;99.90
43581;DHT22;29175;51.030;4.606;2022-12-07T15:10:23;8.20;99.90
43581;DHT22;29175;51.030;4.606;2022-12-07T15:12:49;8.30;99.90
43581;DHT22;29175;51.030;4.606;2022-12-07T15:15:15;8.20;99.90
43581;DHT22;29175;51.030;4.606;2022-12-07T15:17:40;8.10;99.90
43581;DHT22;29175;51.030;4.606;2022-12-07T15:20:11;8.00;99.90
43581;DHT22;29175;51.030;4.606;2022-12-07T15:22:37;7.90;99.90
43581;DHT22;29175;51.030;4.606;2022-12-07T15:25:03;7.90;99.90
43581;DHT22;29175;51.030;4.606;2022-12-07T15:27:31;7.80;99.90
43581;DHT22;29175;51.030;4.606;2022-12-07T15:29:58;7.70;99.90
43581;DHT22;29175;51.030;4.606;2022-12-07T15:32:24;7.70;99.90
43581;DHT22;29175;51.030;4.606;2022-12-07T15:34:50;7.60;99.90
43581;DHT22;29175;51.030;4.606;2022-12-07T15:37:16;7.70;99.90
43581;DHT22;29175;51.030;4.606;2022-12-07T15:39:42;7.50;99.90
43581;DHT22;29175;51.030;4.606;2022-12-07T15:42:07;7.50;99.90
43581;DHT22;29175;51.030;4.606;2022-12-07T15:44:33;7.50;99.90
43581;DHT22;29175;51.030;4.606;2022-12-07T15:47:17;7.50;99.90
43581;DHT22;29175;51.030;4.606;2022-12-07T15:49:43;7.60;99.90
43581;DHT22;29175;51.030;4.606;2022-12-07T15:52:10;7.60;99.90
43581;DHT22;29175;51.030;4.606;2022-12-07T15:54:36;7.60;99.90
43581;DHT22;29175;51.030;4.606;2022-12-07T15:57:02;7.60;99.90
43581;DHT22;29175;51.030;4.606;2022-12-07T15:59:28;7.50;99.90
43581;DHT22;29175;51.030;4.606;2022-12-07T16:01:54;7.60;99.90
43581;DHT22;29175;51.030;4.606;2022-12-07T16:04:23;7.60;99.90
43581;DHT22;29175;51.030;4.606;2022-12-07T16:06:49;7.60;99.90
43581;DHT22;29175;51.030;4.606;2022-12-07T16:09:16;7.70;99.90
43581;DHT22;29175;51.030;4.606;2022-12-07T16:11:42;7.50;99.90
43581;DHT22;29175;51.030;4.606;2022-12-07T16:14:08;7.60;99.90
43581;DHT22;29175;51.030;4.606;2022-12-07T16:16:34;7.70;99.90
43581;DHT22;29175;51.030;4.606;2022-12-07T16:19:00;7.70;99.90
43581;DHT22;29175;51.030;4.606;2022-12-07T16:21:27;7.70;99.90
43581;DHT22;29175;51.030;4.606;2022-12-07T16:23:54;7.70;99.90
43581;DHT22;29175;51.030;4.606;2022-12-07T16:26:21;7.80;99.90
43581;DHT22;29175;51.030;4.606;2022-12-07T16:28:51;7.80;99.90
43581;DHT22;29175;51.030;4.606;2022-12-07T16:31:18;7.60;99.90
43581;DHT22;29175;51.030;4.606;2022-12-07T16:33:45;7.50;99.90
43581;DHT22;29175;51.030;4.606;2022-12-07T16:36:11;7.70;99.90
43581;DHT22;29175;51.030;4.606;2022-12-07T16:38:39;7.80;99.90
43581;DHT22;29175;51.030;4.606;2022-12-07T16:41:07;7.70;99.90
43581;DHT22;29175;51.030;4.606;2022-12-07T16:43:33;7.80;99.90
43581;DHT22;29175;51.030;4.606;2022-12-07T16:46:00;7.80;99.90
43581;DHT22;29175;51.030;4.606;2022-12-07T16:48:26;7.80;99.90
43581;DHT22;29175;51.030;4.606;2022-12-07T16:50:51;7.70;99.90
43581;DHT22;29175;51.030;4.606;2022-12-07T16:53:20;7.70;99.90
43581;DHT22;29175;51.030;4.606;2022-12-07T16:55:46;7.60;99.90
43581;DHT22;29175;51.030;4.606;2022-12-07T16:58:13;7.50;99.90
43581;DHT22;29175;51.030;4.606;2022-12-07T17:00:40;7.60;99.90
43581;DHT22;29175;51.030;4.606;2022-12-07T17:03:06;7.60;99.90
43581;DHT22;29175;51.030;4.606;2022-12-07T17:05:33;7.70;99.90
43581;DHT22;29175;51.030;4.606;2022-12-07T17:07:59;7.50;99.90
43581;DHT22;29175;51.030;4.606;2022-12-07T17:10:25;7.50;99.90
43581;DHT22;29175;51.030;4.606;2022-12-07T17:12:52;7.60;99.90
43581;DHT22;29175;51.030;4.606;2022-12-07T17:15:18;7.60;99.90
43581;DHT22;29175;51.030;4.606;2022-12-07T17:17:56;7.40;99.90
43581;DHT22;29175;51.030;4.606;2022-12-07T17:20:26;7.50;99.90
43581;DHT22;29175;51.030;4.606;2022-12-07T17:22:52;7.50;99.90
43581;DHT22;29175;51.030;4.606;2022-12-07T17:25:19;7.50;99.90
43581;DHT22;29175;51.030;4.606;2022-12-07T17:27:45;7.60;99.90
43581;DHT22;29175;51.030;4.606;2022-12-07T17:30:12;7.60;99.90
43581;DHT22;29175;51.030;4.606;2022-12-07T17:32:38;7.70;99.90
43581;DHT22;29175;51.030;4.606;2022-12-07T17:35:04;7.80;99.90
43581;DHT22;29175;51.030;4.606;2022-12-07T17:37:31;7.70;99.90
43581;DHT22;29175;51.030;4.606;2022-12-07T17:39:57;7.60;99.90
43581;DHT22;29175;51.030;4.606;2022-12-07T17:42:24;7.70;99.90
43581;DHT22;29175;51.030;4.606;2022-12-07T17:45:03;7.70;99.90
43581;DHT22;29175;51.030;4.606;2022-12-07T17:47:29;7.70;99.90
43581;DHT22;29175;51.030;4.606;2022-12-07T17:49:55;7.50;99.90
43581;DHT22;29175;51.030;4.606;2022-12-07T17:52:20;7.60;99.90
43581;DHT22;29175;51.030;4.606;2022-12-07T17:55:05;7.70;99.90
43581;DHT22;29175;51.030;4.606;2022-12-07T17:57:30;7.80;99.90
43581;DHT22;29175;51.030;4.606;2022-12-07T17:59:56;7.80;99.90
43581;DHT22;29175;51.030;4.606;2022-12-07T18:02:22;7.70;99.90
43581;DHT22;29175;51.030;4.606;2022-12-07T18:04:48;7.80;99.90
43581;DHT22;29175;51.030;4.606;2022-12-07T18:07:13;7.70;99.90
43581;DHT22;29175;51.030;4.606;2022-12-07T18:09:39;7.70;99.90
43581;DHT22;29175;51.030;4.606;2022-12-07T18:12:07;7.60;99.90